Perley, Minnesota
Current Conditions -  °F | °C
As of 6:53 PM on Wednesday 22 Oct 2014 (Local Time) from KFAR Reporting Station
Overcast Overcast  
Wind Chill: 56°   Ceiling: 5500
Heat Index: 56°   Visibility: 10mi
Dew Point: 53°   Wind: 9mph
Humidity: 90%   Direction: 230°SW
Pressure: 29.87"   Gusts: NA
Location:  47.18°N, 96.81°W
Report Text: KFAR 222353Z 23008KT 10SM OVC055 13/12 A2987 RMK AO2 RAE02 SLP118 P0000 60004 T01330117 10200 20133 53011
Loading
Personal Weather Stations






























Interactive Weather Map
Tropical Storm Tracking
New forecast layout! Learn more

10-Day Weather Forecast

Advertisements
Track Severe Weather on mobile